Flinterduin — PEBT — position and weather

sailwx.info

Track history (hours):
 
Tides and Currents Weather Stations Pressure Air Temp Water Temp Dewpoint Dewpoint Depression Visibility Wind Speed Wind Dir Waves Ship Positions

Flinterduin

Last reported at 2015-Mar-31 04:16 UTC. Time now 2015-Mar-31 06:41 UTC.
Position N 39°19' E 009°46'.

Length 112 m; beam 15 m.

Type: Cargo ship. MMSI: 246484000.

Date/timePositionNaut miles runAvg speedWind from/ knotsBaromVisibWave heightAir tempDewpointWater temp
2015-Mar-31 04:16N 39°19' E 009°46'1212.2
2015-Mar-31 03:16N 39°07' E 009°46'2112.2
2015-Mar-31 01:33N 38°52' E 009°27'1212.1
2015-Mar-31 00:33N 38°46' E 009°13'1212.0
2015-Mar-30 23:32N 38°44' E 008°58'1212.7
2015-Mar-30 22:33N 38°44' E 008°42'1312.9
2015-Mar-30 21:33N 38°44' E 008°26'2812.9
2015-Mar-30 19:23N 38°52' E 007°51'18712.6
2015-Mar-30 04:28N 39°13' E 003°51'1011.2
2015-Mar-30 03:33N 39°07' E 003°40'1111.1
2015-Mar-30 02:33N 39°02' E 003°28'1111.0
2015-Mar-30 01:33N 38°56' E 003°16'1110.7
2015-Mar-30 00:33N 38°50' E 003°04'1110.4
2015-Mar-29 23:33N 38°45' E 002°53'1110.6
2015-Mar-29 22:33N 38°39' E 002°41'1310.6
2015-Mar-29 21:21N 38°33' E 002°27'10910.9
2015-Mar-29 11:19N 37°37' E 000°27'810.5
2015-Mar-29 10:34N 37°33' E 000°19'1110.8
2015-Mar-29 09:33N 37°28' E 000°07'1111.4
2015-Mar-29 08:33N 37°22' W 000°05'1111.3
2015-Mar-29 07:33N 37°16' W 000°18'1110.7
2015-Mar-29 06:30N 37°10' W 000°30'1010.8
2015-Mar-29 05:33N 37°05' W 000°41'1111.0
2015-Mar-29 04:32N 36°59' W 000°53'1110.9
2015-Mar-29 03:33N 36°54' W 001°04'1410.9
2015-Mar-29 02:18N 36°46' W 001°18'1110.8
2015-Mar-29 01:16N 36°40' W 001°30'18410.9
2015-Mar-28 08:20N 35°59' W 005°13'1013.6
2015-Mar-28 07:34N 35°58' W 005°26'4710.4
2015-Mar-28 03:00N 35°54' W 006°24'16910.6 350 / 41027.3 5.4 1.015.011.6
2015-Mar-27 11:04N 37°02' W 009°37'1710.5
2015-Mar-27 09:29N 37°18' W 009°42'1010.6
2015-Mar-27 08:30N 37°28' W 009°45'1010.7
2015-Mar-27 07:31N 37°38' W 009°47'1010.5
2015-Mar-27 06:32N 37°48' W 009°50'3110.4
2015-Mar-27 03:33N 38°19' W 009°59'1110.5
2015-Mar-27 02:32N 38°29' W 010°02'1010.5
2015-Mar-27 01:32N 38°39' W 010°05'1110.5
2015-Mar-27 00:32N 38°50' W 010°06'1311.0
2015-Mar-26 23:23N 39°03' W 010°06'46610.5
2015-Mar-25 03:00N 46°12' W 006°00'35610.3 330 / 61016.4 8.0 3.8
2015-Mar-23 16:25N 50°31' E 000°08'1213.7
2015-Mar-23 15:33N 50°34' E 000°26'1212.4
2015-Mar-23 14:33N 50°39' E 000°43'1111.3
2015-Mar-23 13:33N 50°45' E 000°58'2211.0
2015-Mar-23 11:30N 50°60' E 001°25'1414.5
2015-Mar-23 10:33N 51°10' E 001°40'1616.1
2015-Mar-23 09:34N 51°23' E 001°54'1413.8
2015-Mar-23 08:33N 51°34' E 002°08'1312.9
2015-Mar-23 07:33N 51°44' E 002°22'1611.7
2015-Mar-23 06:11N 51°56' E 002°39'2110.7
2015-Mar-23 04:14N 52°12' E 003°01'7 5.6
2015-Mar-23 03:00N 52°18' E 003°06'8013.5 210 / 41020.4 5.4 5.0 2.8
2015-Mar-22 21:06N 53°19' E 004°30'711.9
2015-Mar-22 20:31N 53°26' E 004°35'1111.1
2015-Mar-22 19:33N 53°31' E 004°50'1111.1
2015-Mar-22 18:33N 53°35' E 005°08'1211.7
2015-Mar-22 17:33N 53°39' E 005°27'1313.3
2015-Mar-22 16:33N 53°43' E 005°48'5413.3
2015-Mar-22 12:32N 53°58' E 007°15'1211.9
2015-Mar-22 11:33N 54°01' E 007°34'1111.3
2015-Mar-22 10:33N 54°02' E 007°53'1110.7
2015-Mar-22 09:32N 54°01' E 008°12'1010.5
2015-Mar-22 08:33N 53°59' E 008°29'1413.7
2015-Mar-22 07:34N 53°51' E 008°47'1514.5
2015-Mar-22 06:34N 53°53' E 009°12'1414.2
2015-Mar-22 05:34N 53°43' E 009°29'1212.1
2015-Mar-22 04:33N 53°34' E 009°43'7 7.0
2015-Mar-22 03:31N 53°31' E 009°54'0 0.0
2015-Mar-22 02:19N 53°31' E 009°54'0 0.0
2015-Mar-22 01:31N 53°31' E 009°54'0 0.0
2015-Mar-22 00:22N 53°31' E 009°54'0 0.0
2015-Mar-21 23:31N 53°31' E 009°54'0 0.0
2015-Mar-21 22:25N 53°31' E 009°54'0 0.0
2015-Mar-21 21:31N 53°31' E 009°54'0 0.0
2015-Mar-21 20:19N 53°31' E 009°54'0 0.0
2015-Mar-21 19:33N 53°31' E 009°54'0 0.0
2015-Mar-21 18:31N 53°31' E 009°54'0 0.0
2015-Mar-21 17:21N 53°31' E 009°54'0 0.0
2015-Mar-21 16:30N 53°31' E 009°54'0 0.0
2015-Mar-21 15:30N 53°31' E 009°54'0 0.0
2015-Mar-21 14:33N 53°31' E 009°54'0 0.0
2015-Mar-21 13:31N 53°31' E 009°54'0 0.0
2015-Mar-21 12:33N 53°31' E 009°54'0 0.0
2015-Mar-21 11:30N 53°31' E 009°54'0 0.0
2015-Mar-21 10:33N 53°31' E 009°54'0 0.0
2015-Mar-21 09:24N 53°31' E 009°54'0 0.0
2015-Mar-21 08:30N 53°31' E 009°54'0 0.0
2015-Mar-21 07:30N 53°31' E 009°54'0 0.0
2015-Mar-21 06:33N 53°31' E 009°54'0 0.0
2015-Mar-21 05:33N 53°31' E 009°54'0 0.0
2015-Mar-21 04:30N 53°31' E 009°54'  
Track history (hours):
 
Tides and Currents Weather Stations Pressure Air Temp Water Temp Dewpoint Dewpoint Depression Visibility Wind Speed Wind Dir Waves Ship Positions

Flinterduin

Last reported at 2015-Mar-31 04:16 UTC. Time now 2015-Mar-31 06:41 UTC.
Position N 39°19' E 009°46'.

Length 112 m; beam 15 m.

Type: Cargo ship. MMSI: 246484000.

Date/timePositionNaut miles runAvg speedWind from/ knotsBaromVisibWave heightAir tempDewpointWater temp
2015-Mar-31 04:16N 39°19' E 009°46'1212.2
2015-Mar-31 03:16N 39°07' E 009°46'2112.2
2015-Mar-31 01:33N 38°52' E 009°27'1212.1
2015-Mar-31 00:33N 38°46' E 009°13'1212.0
2015-Mar-30 23:32N 38°44' E 008°58'1212.7
2015-Mar-30 22:33N 38°44' E 008°42'1312.9
2015-Mar-30 21:33N 38°44' E 008°26'2812.9
2015-Mar-30 19:23N 38°52' E 007°51'18712.6
2015-Mar-30 04:28N 39°13' E 003°51'1011.2
2015-Mar-30 03:33N 39°07' E 003°40'1111.1
2015-Mar-30 02:33N 39°02' E 003°28'1111.0
2015-Mar-30 01:33N 38°56' E 003°16'1110.7
2015-Mar-30 00:33N 38°50' E 003°04'1110.4
2015-Mar-29 23:33N 38°45' E 002°53'1110.6
2015-Mar-29 22:33N 38°39' E 002°41'1310.6
2015-Mar-29 21:21N 38°33' E 002°27'10910.9
2015-Mar-29 11:19N 37°37' E 000°27'810.5
2015-Mar-29 10:34N 37°33' E 000°19'1110.8
2015-Mar-29 09:33N 37°28' E 000°07'1111.4
2015-Mar-29 08:33N 37°22' W 000°05'1111.3
2015-Mar-29 07:33N 37°16' W 000°18'1110.7
2015-Mar-29 06:30N 37°10' W 000°30'1010.8
2015-Mar-29 05:33N 37°05' W 000°41'1111.0
2015-Mar-29 04:32N 36°59' W 000°53'1110.9
2015-Mar-29 03:33N 36°54' W 001°04'1410.9
2015-Mar-29 02:18N 36°46' W 001°18'1110.8
2015-Mar-29 01:16N 36°40' W 001°30'18410.9
2015-Mar-28 08:20N 35°59' W 005°13'1013.6
2015-Mar-28 07:34N 35°58' W 005°26'4710.4
2015-Mar-28 03:00N 35°54' W 006°24'16910.6 350 / 41027.3 5.4 1.015.011.6
2015-Mar-27 11:04N 37°02' W 009°37'1710.5
2015-Mar-27 09:29N 37°18' W 009°42'1010.6
2015-Mar-27 08:30N 37°28' W 009°45'1010.7
2015-Mar-27 07:31N 37°38' W 009°47'1010.5
2015-Mar-27 06:32N 37°48' W 009°50'3110.4
2015-Mar-27 03:33N 38°19' W 009°59'1110.5
2015-Mar-27 02:32N 38°29' W 010°02'1010.5
2015-Mar-27 01:32N 38°39' W 010°05'1110.5
2015-Mar-27 00:32N 38°50' W 010°06'1311.0
2015-Mar-26 23:23N 39°03' W 010°06'46610.5
2015-Mar-25 03:00N 46°12' W 006°00'35610.3 330 / 61016.4 8.0 3.8
2015-Mar-23 16:25N 50°31' E 000°08'1213.7
2015-Mar-23 15:33N 50°34' E 000°26'1212.4
2015-Mar-23 14:33N 50°39' E 000°43'1111.3
2015-Mar-23 13:33N 50°45' E 000°58'2211.0
2015-Mar-23 11:30N 50°60' E 001°25'1414.5
2015-Mar-23 10:33N 51°10' E 001°40'1616.1
2015-Mar-23 09:34N 51°23' E 001°54'1413.8
2015-Mar-23 08:33N 51°34' E 002°08'1312.9
2015-Mar-23 07:33N 51°44' E 002°22'1611.7
2015-Mar-23 06:11N 51°56' E 002°39'2110.7
2015-Mar-23 04:14N 52°12' E 003°01'7 5.6
2015-Mar-23 03:00N 52°18' E 003°06'8013.5 210 / 41020.4 5.4 5.0 2.8
2015-Mar-22 21:06N 53°19' E 004°30'711.9
2015-Mar-22 20:31N 53°26' E 004°35'1111.1
2015-Mar-22 19:33N 53°31' E 004°50'1111.1
2015-Mar-22 18:33N 53°35' E 005°08'1211.7
2015-Mar-22 17:33N 53°39' E 005°27'1313.3
2015-Mar-22 16:33N 53°43' E 005°48'5413.3
2015-Mar-22 12:32N 53°58' E 007°15'1211.9
2015-Mar-22 11:33N 54°01' E 007°34'1111.3
2015-Mar-22 10:33N 54°02' E 007°53'1110.7
2015-Mar-22 09:32N 54°01' E 008°12'1010.5
2015-Mar-22 08:33N 53°59' E 008°29'1413.7
2015-Mar-22 07:34N 53°51' E 008°47'1514.5
2015-Mar-22 06:34N 53°53' E 009°12'1414.2
2015-Mar-22 05:34N 53°43' E 009°29'1212.1
2015-Mar-22 04:33N 53°34' E 009°43'7 7.0
2015-Mar-22 03:31N 53°31' E 009°54'0 0.0
2015-Mar-22 02:19N 53°31' E 009°54'0 0.0
2015-Mar-22 01:31N 53°31' E 009°54'0 0.0
2015-Mar-22 00:22N 53°31' E 009°54'0 0.0
2015-Mar-21 23:31N 53°31' E 009°54'0 0.0
2015-Mar-21 22:25N 53°31' E 009°54'0 0.0
2015-Mar-21 21:31N 53°31' E 009°54'0 0.0
2015-Mar-21 20:19N 53°31' E 009°54'0 0.0
2015-Mar-21 19:33N 53°31' E 009°54'0 0.0
2015-Mar-21 18:31N 53°31' E 009°54'0 0.0
2015-Mar-21 17:21N 53°31' E 009°54'0 0.0
2015-Mar-21 16:30N 53°31' E 009°54'0 0.0
2015-Mar-21 15:30N 53°31' E 009°54'0 0.0
2015-Mar-21 14:33N 53°31' E 009°54'0 0.0
2015-Mar-21 13:31N 53°31' E 009°54'0 0.0
2015-Mar-21 12:33N 53°31' E 009°54'0 0.0
2015-Mar-21 11:30N 53°31' E 009°54'0 0.0
2015-Mar-21 10:33N 53°31' E 009°54'0 0.0
2015-Mar-21 09:24N 53°31' E 009°54'0 0.0
2015-Mar-21 08:30N 53°31' E 009°54'0 0.0
2015-Mar-21 07:30N 53°31' E 009°54'0 0.0
2015-Mar-21 06:33N 53°31' E 009°54'0 0.0
2015-Mar-21 05:33N 53°31' E 009°54'0 0.0
2015-Mar-21 04:30N 53°31' E 009°54'  

Dump ship's entire track history